sensor_id;sensor_type;location;lat;lon;timestamp;pressure;altitude;pressure_sealevel;temperature;humidity
38022;BME280;23832;43.216;27.946;2023-02-26T00:00:29;99789.25;;;20.10;54.36
38022;BME280;23832;43.216;27.946;2023-02-26T00:02:31;99785.09;;;20.24;54.32
38022;BME280;23832;43.216;27.946;2023-02-26T00:04:33;99788.94;;;20.01;55.33
38022;BME280;23832;43.216;27.946;2023-02-26T00:06:36;99790.63;;;20.12;55.37
38022;BME280;23832;43.216;27.946;2023-02-26T00:08:40;99778.94;;;19.87;56.39
38022;BME280;23832;43.216;27.946;2023-02-26T00:10:42;99789.38;;;19.88;56.97
38022;BME280;23832;43.216;27.946;2023-02-26T00:12:45;99784.63;;;19.95;56.84
38022;BME280;23832;43.216;27.946;2023-02-26T00:14:48;99789.31;;;20.15;56.20
38022;BME280;23832;43.216;27.946;2023-02-26T00:16:56;99781.09;;;20.27;56.07
38022;BME280;23832;43.216;27.946;2023-02-26T00:19:07;99789.41;;;20.30;55.93
38022;BME280;23832;43.216;27.946;2023-02-26T00:21:15;99771.72;;;20.24;56.89
38022;BME280;23832;43.216;27.946;2023-02-26T00:23:18;99793.88;;;20.20;56.67
38022;BME280;23832;43.216;27.946;2023-02-26T00:25:21;99771.38;;;19.83;57.98
38022;BME280;23832;43.216;27.946;2023-02-26T00:27:23;99781.38;;;19.93;58.76
38022;BME280;23832;43.216;27.946;2023-02-26T00:29:26;99778.69;;;19.93;59.10
38022;BME280;23832;43.216;27.946;2023-02-26T00:31:28;99774.31;;;19.82;60.11
38022;BME280;23832;43.216;27.946;2023-02-26T00:33:31;99772.31;;;19.67;61.40
38022;BME280;23832;43.216;27.946;2023-02-26T00:35:33;99768.00;;;19.61;62.16
38022;BME280;23832;43.216;27.946;2023-02-26T00:37:52;99770.41;;;19.95;61.36
38022;BME280;23832;43.216;27.946;2023-02-26T00:40:04;99779.41;;;19.83;61.09
38022;BME280;23832;43.216;27.946;2023-02-26T00:42:13;99780.75;;;20.13;60.27
38022;BME280;23832;43.216;27.946;2023-02-26T00:44:16;99782.91;;;20.16;59.96
38022;BME280;23832;43.216;27.946;2023-02-26T00:46:21;99781.78;;;20.12;60.24
38022;BME280;23832;43.216;27.946;2023-02-26T00:48:37;99764.22;;;20.26;59.60
38022;BME280;23832;43.216;27.946;2023-02-26T00:50:47;99766.66;;;20.28;59.51
38022;BME280;23832;43.216;27.946;2023-02-26T00:53:01;99761.44;;;20.43;59.13
38022;BME280;23832;43.216;27.946;2023-02-26T00:55:04;99750.19;;;20.46;58.83
38022;BME280;23832;43.216;27.946;2023-02-26T00:57:06;99749.88;;;20.42;59.13
38022;BME280;23832;43.216;27.946;2023-02-26T00:59:10;99716.00;;;20.16;59.48
38022;BME280;23832;43.216;27.946;2023-02-26T01:01:11;99747.78;;;20.45;59.33
38022;BME280;23832;43.216;27.946;2023-02-26T01:03:14;99746.38;;;20.37;59.76
38022;BME280;23832;43.216;27.946;2023-02-26T01:05:18;99744.63;;;20.53;59.24
38022;BME280;23832;43.216;27.946;2023-02-26T01:07:22;99755.34;;;20.58;58.98
38022;BME280;23832;43.216;27.946;2023-02-26T01:09:27;99746.97;;;20.44;59.49
38022;BME280;23832;43.216;27.946;2023-02-26T01:11:30;99757.44;;;20.46;59.77
38022;BME280;23832;43.216;27.946;2023-02-26T01:13:32;99749.50;;;20.24;61.10
38022;BME280;23832;43.216;27.946;2023-02-26T01:15:36;99755.72;;;20.34;61.09
38022;BME280;23832;43.216;27.946;2023-02-26T01:17:42;99737.53;;;20.36;60.90
38022;BME280;23832;43.216;27.946;2023-02-26T01:19:49;99728.38;;;20.27;61.53
38022;BME280;23832;43.216;27.946;2023-02-26T01:22:00;99734.31;;;20.34;61.58
38022;BME280;23832;43.216;27.946;2023-02-26T01:24:06;99732.47;;;20.40;60.78
38022;BME280;23832;43.216;27.946;2023-02-26T01:26:12;99735.00;;;20.15;62.73
38022;BME280;23832;43.216;27.946;2023-02-26T01:28:16;99724.34;;;20.25;62.19
38022;BME280;23832;43.216;27.946;2023-02-26T01:30:19;99724.75;;;20.44;61.36
38022;BME280;23832;43.216;27.946;2023-02-26T01:32:40;99718.84;;;20.41;61.83
38022;BME280;23832;43.216;27.946;2023-02-26T01:34:46;99720.47;;;20.48;61.51
38022;BME280;23832;43.216;27.946;2023-02-26T01:36:55;99717.72;;;20.37;61.35
38022;BME280;23832;43.216;27.946;2023-02-26T01:39:01;99726.91;;;20.47;61.75
38022;BME280;23832;43.216;27.946;2023-02-26T01:41:15;99726.81;;;20.36;62.14
38022;BME280;23832;43.216;27.946;2023-02-26T01:43:23;99715.31;;;20.36;61.54
38022;BME280;23832;43.216;27.946;2023-02-26T01:45:30;99720.13;;;20.34;62.00
38022;BME280;23832;43.216;27.946;2023-02-26T01:47:39;99734.00;;;20.31;62.38
38022;BME280;23832;43.216;27.946;2023-02-26T01:49:42;99717.13;;;20.30;62.11
38022;BME280;23832;43.216;27.946;2023-02-26T01:51:50;99726.81;;;20.31;62.59
38022;BME280;23832;43.216;27.946;2023-02-26T01:53:52;99728.41;;;20.32;62.18
38022;BME280;23832;43.216;27.946;2023-02-26T01:55:56;99742.03;;;20.26;62.25
38022;BME280;23832;43.216;27.946;2023-02-26T01:58:00;99733.94;;;20.16;63.35
38022;BME280;23832;43.216;27.946;2023-02-26T02:00:04;99738.31;;;19.95;64.65
38022;BME280;23832;43.216;27.946;2023-02-26T02:02:07;99722.84;;;20.02;64.21
38022;BME280;23832;43.216;27.946;2023-02-26T02:04:13;99743.66;;;19.95;65.40
38022;BME280;23832;43.216;27.946;2023-02-26T02:06:20;99746.22;;;19.79;66.39
38022;BME280;23832;43.216;27.946;2023-02-26T02:08:25;99747.41;;;19.94;65.94
38022;BME280;23832;43.216;27.946;2023-02-26T02:10:27;99754.16;;;20.01;65.36
38022;BME280;23832;43.216;27.946;2023-02-26T02:12:35;99765.44;;;20.08;65.57
38022;BME280;23832;43.216;27.946;2023-02-26T02:14:45;99768.03;;;19.98;65.89
38022;BME280;23832;43.216;27.946;2023-02-26T02:16:58;99767.19;;;19.93;66.68
38022;BME280;23832;43.216;27.946;2023-02-26T02:19:12;99772.66;;;20.08;66.05
38022;BME280;23832;43.216;27.946;2023-02-26T02:21:40;99773.88;;;20.27;64.79
38022;BME280;23832;43.216;27.946;2023-02-26T02:23:46;99783.81;;;20.32;63.89
38022;BME280;23832;43.216;27.946;2023-02-26T02:26:10;99777.00;;;20.14;64.74
38022;BME280;23832;43.216;27.946;2023-02-26T02:28:25;99776.03;;;20.30;64.64
38022;BME280;23832;43.216;27.946;2023-02-26T02:30:36;99793.16;;;20.29;64.26
38022;BME280;23832;43.216;27.946;2023-02-26T02:32:47;99779.56;;;20.36;64.12
38022;BME280;23832;43.216;27.946;2023-02-26T02:34:56;99789.28;;;20.47;63.20
38022;BME280;23832;43.216;27.946;2023-02-26T02:37:02;99791.59;;;20.38;63.64
38022;BME280;23832;43.216;27.946;2023-02-26T02:39:08;99793.34;;;20.50;62.99
38022;BME280;23832;43.216;27.946;2023-02-26T02:41:14;99787.19;;;20.49;63.03
38022;BME280;23832;43.216;27.946;2023-02-26T02:43:21;99790.41;;;20.56;62.71
38022;BME280;23832;43.216;27.946;2023-02-26T02:45:26;99790.72;;;20.60;62.11
38022;BME280;23832;43.216;27.946;2023-02-26T02:47:33;99806.19;;;20.53;62.40
38022;BME280;23832;43.216;27.946;2023-02-26T02:49:41;99801.91;;;20.52;62.45
38022;BME280;23832;43.216;27.946;2023-02-26T02:51:49;99809.84;;;20.41;62.96
38022;BME280;23832;43.216;27.946;2023-02-26T02:53:56;99811.03;;;20.56;62.19
38022;BME280;23832;43.216;27.946;2023-02-26T02:56:04;99823.81;;;20.44;62.68
38022;BME280;23832;43.216;27.946;2023-02-26T02:58:11;99834.25;;;20.45;62.57
38022;BME280;23832;43.216;27.946;2023-02-26T03:00:16;99849.06;;;20.26;63.53
38022;BME280;23832;43.216;27.946;2023-02-26T03:02:25;99850.44;;;20.28;63.80
38022;BME280;23832;43.216;27.946;2023-02-26T03:04:30;99844.59;;;20.36;63.09
38022;BME280;23832;43.216;27.946;2023-02-26T03:06:34;99846.19;;;20.32;63.76
38022;BME280;23832;43.216;27.946;2023-02-26T03:08:39;99841.38;;;20.34;63.42
38022;BME280;23832;43.216;27.946;2023-02-26T03:10:42;99852.00;;;20.24;63.73
38022;BME280;23832;43.216;27.946;2023-02-26T03:12:44;99857.34;;;20.51;62.40
38022;BME280;23832;43.216;27.946;2023-02-26T03:14:46;99853.81;;;20.46;62.57
38022;BME280;23832;43.216;27.946;2023-02-26T03:17:09;99853.97;;;20.39;63.11
38022;BME280;23832;43.216;27.946;2023-02-26T03:19:17;99863.88;;;20.33;62.95
38022;BME280;23832;43.216;27.946;2023-02-26T03:21:27;99866.47;;;20.23;63.65
38022;BME280;23832;43.216;27.946;2023-02-26T03:23:37;99860.88;;;20.30;63.47
38022;BME280;23832;43.216;27.946;2023-02-26T03:25:45;99859.59;;;20.37;63.11
38022;BME280;23832;43.216;27.946;2023-02-26T03:27:54;99871.91;;;20.33;62.79
38022;BME280;23832;43.216;27.946;2023-02-26T03:30:00;99859.22;;;20.56;61.86
38022;BME280;23832;43.216;27.946;2023-02-26T03:32:06;99860.31;;;20.28;63.33
38022;BME280;23832;43.216;27.946;2023-02-26T03:34:15;99856.66;;;20.39;62.86
38022;BME280;23832;43.216;27.946;2023-02-26T03:36:22;99865.97;;;20.63;61.38
38022;BME280;23832;43.216;27.946;2023-02-26T03:38:34;99856.53;;;20.51;61.93
38022;BME280;23832;43.216;27.946;2023-02-26T03:40:41;99857.06;;;20.53;61.83
38022;BME280;23832;43.216;27.946;2023-02-26T03:42:47;99868.41;;;20.33;62.34
38022;BME280;23832;43.216;27.946;2023-02-26T03:44:55;99864.19;;;20.42;62.14
38022;BME280;23832;43.216;27.946;2023-02-26T03:47:02;99873.41;;;20.24;62.73
38022;BME280;23832;43.216;27.946;2023-02-26T03:49:09;99870.84;;;20.39;62.39
38022;BME280;23832;43.216;27.946;2023-02-26T03:51:13;99871.59;;;20.03;64.64
38022;BME280;23832;43.216;27.946;2023-02-26T03:53:19;99871.88;;;20.01;64.85
38022;BME280;23832;43.216;27.946;2023-02-26T03:55:28;99881.91;;;19.89;65.97
38022;BME280;23832;43.216;27.946;2023-02-26T03:57:32;99881.22;;;19.99;65.54
38022;BME280;23832;43.216;27.946;2023-02-26T03:59:35;99875.88;;;20.04;64.65
38022;BME280;23832;43.216;27.946;2023-02-26T04:01:40;99878.78;;;19.97;65.52
38022;BME280;23832;43.216;27.946;2023-02-26T04:03:47;99884.53;;;20.11;64.37
38022;BME280;23832;43.216;27.946;2023-02-26T04:05:51;99884.53;;;20.11;64.32
38022;BME280;23832;43.216;27.946;2023-02-26T04:07:54;99895.13;;;20.01;64.75
38022;BME280;23832;43.216;27.946;2023-02-26T04:09:57;99890.03;;;19.99;64.84
38022;BME280;23832;43.216;27.946;2023-02-26T04:12:01;99884.50;;;20.06;64.67
38022;BME280;23832;43.216;27.946;2023-02-26T04:14:03;99889.16;;;20.21;63.42
38022;BME280;23832;43.216;27.946;2023-02-26T04:16:06;99887.34;;;20.26;63.03
38022;BME280;23832;43.216;27.946;2023-02-26T04:18:08;99892.84;;;20.41;62.33
38022;BME280;23832;43.216;27.946;2023-02-26T04:20:10;99894.84;;;20.24;62.87
38022;BME280;23832;43.216;27.946;2023-02-26T04:22:12;99896.47;;;20.30;62.54
38022;BME280;23832;43.216;27.946;2023-02-26T04:24:14;99880.47;;;20.35;62.37
38022;BME280;23832;43.216;27.946;2023-02-26T04:26:16;99902.25;;;20.44;61.70
38022;BME280;23832;43.216;27.946;2023-02-26T04:28:20;99883.69;;;20.37;62.23
38022;BME280;23832;43.216;27.946;2023-02-26T04:30:22;99901.53;;;20.54;61.44
38022;BME280;23832;43.216;27.946;2023-02-26T04:32:24;99902.06;;;20.51;61.62
38022;BME280;23832;43.216;27.946;2023-02-26T04:34:25;99906.00;;;20.43;61.96
38022;BME280;23832;43.216;27.946;2023-02-26T04:36:27;99911.38;;;20.48;61.96
38022;BME280;23832;43.216;27.946;2023-02-26T04:38:29;99902.59;;;20.53;61.40
38022;BME280;23832;43.216;27.946;2023-02-26T04:40:31;99907.16;;;20.57;61.37
38022;BME280;23832;43.216;27.946;2023-02-26T04:42:33;99906.16;;;20.63;61.21
38022;BME280;23832;43.216;27.946;2023-02-26T04:44:36;99902.78;;;20.78;61.10
38022;BME280;23832;43.216;27.946;2023-02-26T04:46:38;99905.00;;;20.91;60.27
38022;BME280;23832;43.216;27.946;2023-02-26T04:48:40;99909.78;;;20.84;60.71
38022;BME280;23832;43.216;27.946;2023-02-26T04:50:42;99915.69;;;20.86;61.26
38022;BME280;23832;43.216;27.946;2023-02-26T04:52:47;99906.63;;;20.92;61.04
38022;BME280;23832;43.216;27.946;2023-02-26T04:54:49;99917.97;;;21.05;62.82
38022;BME280;23832;43.216;27.946;2023-02-26T04:56:51;99914.97;;;21.01;62.94
38022;BME280;23832;43.216;27.946;2023-02-26T04:58:53;99908.53;;;20.97;63.49
38022;BME280;23832;43.216;27.946;2023-02-26T05:00:56;99907.41;;;21.30;61.52
38022;BME280;23832;43.216;27.946;2023-02-26T05:02:58;99905.03;;;21.39;60.13
38022;BME280;23832;43.216;27.946;2023-02-26T05:05:01;99922.31;;;21.16;60.38
38022;BME280;23832;43.216;27.946;2023-02-26T05:07:02;99931.38;;;21.10;60.60
38022;BME280;23832;43.216;27.946;2023-02-26T05:09:04;99934.44;;;20.86;61.54
38022;BME280;23832;43.216;27.946;2023-02-26T05:11:06;99937.00;;;21.08;60.97
38022;BME280;23832;43.216;27.946;2023-02-26T05:13:08;99945.31;;;21.07;61.64
38022;BME280;23832;43.216;27.946;2023-02-26T05:15:11;99949.03;;;21.06;60.91
38022;BME280;23832;43.216;27.946;2023-02-26T05:17:14;99953.50;;;20.90;63.09
38022;BME280;23832;43.216;27.946;2023-02-26T05:19:16;99954.59;;;20.94;62.80
38022;BME280;23832;43.216;27.946;2023-02-26T05:21:18;99955.50;;;21.10;62.27
38022;BME280;23832;43.216;27.946;2023-02-26T05:23:21;99957.28;;;20.94;62.67
38022;BME280;23832;43.216;27.946;2023-02-26T05:25:23;99968.88;;;21.10;62.41
38022;BME280;23832;43.216;27.946;2023-02-26T05:27:25;99968.75;;;20.89;63.12
38022;BME280;23832;43.216;27.946;2023-02-26T05:29:27;99983.88;;;21.06;62.39
38022;BME280;23832;43.216;27.946;2023-02-26T05:31:29;99986.78;;;20.99;62.87
38022;BME280;23832;43.216;27.946;2023-02-26T05:33:33;99981.63;;;20.92;63.42
38022;BME280;23832;43.216;27.946;2023-02-26T05:35:36;99982.97;;;20.90;63.51
38022;BME280;23832;43.216;27.946;2023-02-26T05:37:38;99979.00;;;20.97;63.30
38022;BME280;23832;43.216;27.946;2023-02-26T05:39:40;99986.84;;;21.09;62.37
38022;BME280;23832;43.216;27.946;2023-02-26T05:41:42;99986.97;;;20.87;63.74
38022;BME280;23832;43.216;27.946;2023-02-26T05:43:45;99981.00;;;20.80;64.25
38022;BME280;23832;43.216;27.946;2023-02-26T05:45:48;99986.19;;;20.92;64.26
38022;BME280;23832;43.216;27.946;2023-02-26T05:47:50;100001.16;;;20.88;69.59
38022;BME280;23832;43.216;27.946;2023-02-26T05:49:53;99991.13;;;21.05;66.93
38022;BME280;23832;43.216;27.946;2023-02-26T05:51:55;99986.50;;;20.95;65.18
38022;BME280;23832;43.216;27.946;2023-02-26T05:53:57;99990.59;;;21.08;63.64
38022;BME280;23832;43.216;27.946;2023-02-26T05:55:59;99990.66;;;21.18;62.13
38022;BME280;23832;43.216;27.946;2023-02-26T05:58:01;99996.41;;;20.95;62.60
38022;BME280;23832;43.216;27.946;2023-02-26T06:00:04;99984.34;;;20.97;62.20
38022;BME280;23832;43.216;27.946;2023-02-26T06:02:10;99983.97;;;20.84;61.74
38022;BME280;23832;43.216;27.946;2023-02-26T06:04:12;99987.97;;;20.81;62.14
38022;BME280;23832;43.216;27.946;2023-02-26T06:06:15;99996.09;;;20.59;63.08
38022;BME280;23832;43.216;27.946;2023-02-26T06:08:18;99992.75;;;20.47;63.66
38022;BME280;23832;43.216;27.946;2023-02-26T06:10:20;99995.97;;;20.44;63.69
38022;BME280;23832;43.216;27.946;2023-02-26T06:12:21;99994.91;;;20.23;64.97
38022;BME280;23832;43.216;27.946;2023-02-26T06:14:24;99997.16;;;20.09;66.03
38022;BME280;23832;43.216;27.946;2023-02-26T06:16:26;99996.09;;;20.32;64.75
38022;BME280;23832;43.216;27.946;2023-02-26T06:18:28;99982.19;;;20.35;64.43
38022;BME280;23832;43.216;27.946;2023-02-26T06:20:31;99994.16;;;20.50;63.78
38022;BME280;23832;43.216;27.946;2023-02-26T06:22:34;99989.59;;;20.50;63.31
38022;BME280;23832;43.216;27.946;2023-02-26T06:24:36;99989.00;;;20.43;63.84
38022;BME280;23832;43.216;27.946;2023-02-26T06:26:38;100000.59;;;20.54;63.32
38022;BME280;23832;43.216;27.946;2023-02-26T06:28:40;99990.50;;;20.61;62.71
38022;BME280;23832;43.216;27.946;2023-02-26T06:30:42;99990.06;;;20.74;62.19
38022;BME280;23832;43.216;27.946;2023-02-26T06:32:44;99983.09;;;20.73;61.77
38022;BME280;23832;43.216;27.946;2023-02-26T06:34:46;99998.19;;;20.84;61.43
38022;BME280;23832;43.216;27.946;2023-02-26T06:36:48;99990.19;;;20.89;60.77
38022;BME280;23832;43.216;27.946;2023-02-26T06:38:52;99999.31;;;20.93;60.51
38022;BME280;23832;43.216;27.946;2023-02-26T06:40:54;99996.19;;;20.69;61.26
38022;BME280;23832;43.216;27.946;2023-02-26T06:42:56;99999.47;;;20.77;61.17
38022;BME280;23832;43.216;27.946;2023-02-26T06:44:58;100001.00;;;20.67;61.99
38022;BME280;23832;43.216;27.946;2023-02-26T06:47:00;100012.94;;;20.55;62.67
38022;BME280;23832;43.216;27.946;2023-02-26T06:49:02;100021.91;;;20.71;61.92
38022;BME280;23832;43.216;27.946;2023-02-26T06:51:04;100018.47;;;20.75;61.81
38022;BME280;23832;43.216;27.946;2023-02-26T06:53:06;100031.81;;;20.70;62.20
38022;BME280;23832;43.216;27.946;2023-02-26T06:55:10;100033.78;;;20.53;63.13
38022;BME280;23832;43.216;27.946;2023-02-26T06:58:18;100046.28;;;20.69;63.84
38022;BME280;23832;43.216;27.946;2023-02-26T07:00:21;100036.38;;;20.69;63.76
38022;BME280;23832;43.216;27.946;2023-02-26T07:02:23;100040.47;;;20.50;65.72
38022;BME280;23832;43.216;27.946;2023-02-26T07:04:25;100054.50;;;20.62;64.60
38022;BME280;23832;43.216;27.946;2023-02-26T07:06:26;100056.84;;;20.32;64.83
38022;BME280;23832;43.216;27.946;2023-02-26T07:08:28;100045.38;;;20.36;63.98
38022;BME280;23832;43.216;27.946;2023-02-26T07:10:31;100061.69;;;20.35;63.76
38022;BME280;23832;43.216;27.946;2023-02-26T07:12:33;100060.06;;;20.34;63.42
38022;BME280;23832;43.216;27.946;2023-02-26T07:14:36;100063.75;;;20.06;64.50
38022;BME280;23832;43.216;27.946;2023-02-26T07:16:38;100055.97;;;20.26;63.77
38022;BME280;23832;43.216;27.946;2023-02-26T07:18:40;100054.16;;;20.32;63.16
38022;BME280;23832;43.216;27.946;2023-02-26T07:20:43;100053.53;;;20.47;65.27
38022;BME280;23832;43.216;27.946;2023-02-26T07:22:45;100058.41;;;20.50;68.09
38022;BME280;23832;43.216;27.946;2023-02-26T07:24:47;100061.44;;;20.36;68.67
38022;BME280;23832;43.216;27.946;2023-02-26T07:26:49;100065.56;;;20.44;69.12
38022;BME280;23832;43.216;27.946;2023-02-26T07:28:52;100055.25;;;20.58;73.96
38022;BME280;23832;43.216;27.946;2023-02-26T07:30:55;100061.19;;;20.38;70.95
38022;BME280;23832;43.216;27.946;2023-02-26T07:32:58;100068.31;;;20.49;67.68
38022;BME280;23832;43.216;27.946;2023-02-26T07:35:00;100067.66;;;20.42;66.60
38022;BME280;23832;43.216;27.946;2023-02-26T07:37:01;100082.72;;;20.26;67.10
38022;BME280;23832;43.216;27.946;2023-02-26T07:39:03;100078.03;;;20.38;67.63
38022;BME280;23832;43.216;27.946;2023-02-26T07:41:05;100074.28;;;20.34;66.81
38022;BME280;23832;43.216;27.946;2023-02-26T07:43:07;100073.72;;;20.32;66.50
38022;BME280;23832;43.216;27.946;2023-02-26T07:45:10;100080.41;;;20.57;65.44
38022;BME280;23832;43.216;27.946;2023-02-26T07:47:13;100078.81;;;20.56;65.44
38022;BME280;23832;43.216;27.946;2023-02-26T07:49:15;100064.25;;;20.74;64.22
38022;BME280;23832;43.216;27.946;2023-02-26T07:51:17;100062.78;;;20.88;62.43
38022;BME280;23832;43.216;27.946;2023-02-26T07:53:19;100073.72;;;21.13;61.00
38022;BME280;23832;43.216;27.946;2023-02-26T07:55:22;100064.84;;;21.08;60.70
38022;BME280;23832;43.216;27.946;2023-02-26T07:57:23;100067.03;;;21.16;59.59
38022;BME280;23832;43.216;27.946;2023-02-26T07:59:26;100062.53;;;20.89;59.55
38022;BME280;23832;43.216;27.946;2023-02-26T08:01:27;100063.41;;;20.95;59.06
38022;BME280;23832;43.216;27.946;2023-02-26T08:03:31;100045.66;;;20.89;58.91
38022;BME280;23832;43.216;27.946;2023-02-26T08:05:33;100071.34;;;20.85;59.39
38022;BME280;23832;43.216;27.946;2023-02-26T08:07:35;100070.84;;;20.93;59.74
38022;BME280;23832;43.216;27.946;2023-02-26T08:09:37;100056.06;;;20.85;59.44
38022;BME280;23832;43.216;27.946;2023-02-26T08:11:39;100064.56;;;20.77;59.18
38022;BME280;23832;43.216;27.946;2023-02-26T08:13:42;100067.34;;;20.60;59.70
38022;BME280;23832;43.216;27.946;2023-02-26T08:15:46;100059.69;;;20.74;59.09
38022;BME280;23832;43.216;27.946;2023-02-26T08:17:51;100075.06;;;20.57;58.68
38022;BME280;23832;43.216;27.946;2023-02-26T08:19:54;100075.06;;;20.57;59.02
38022;BME280;23832;43.216;27.946;2023-02-26T08:21:57;100059.31;;;20.60;58.61
38022;BME280;23832;43.216;27.946;2023-02-26T08:23:59;100056.91;;;20.59;58.54
38022;BME280;23832;43.216;27.946;2023-02-26T08:26:02;100061.75;;;20.62;58.17
38022;BME280;23832;43.216;27.946;2023-02-26T08:28:04;100064.66;;;20.87;57.26
38022;BME280;23832;43.216;27.946;2023-02-26T08:30:07;100062.28;;;20.91;57.05
38022;BME280;23832;43.216;27.946;2023-02-26T08:32:10;100058.66;;;21.07;56.34
38022;BME280;23832;43.216;27.946;2023-02-26T08:34:11;100059.25;;;21.14;55.79
38022;BME280;23832;43.216;27.946;2023-02-26T08:36:15;100049.94;;;21.22;55.50
38022;BME280;23832;43.216;27.946;2023-02-26T08:38:17;100061.25;;;21.29;55.25
38022;BME280;23832;43.216;27.946;2023-02-26T08:40:21;100058.91;;;21.38;54.77
38022;BME280;23832;43.216;27.946;2023-02-26T08:42:23;100058.44;;;21.46;54.34
38022;BME280;23832;43.216;27.946;2023-02-26T08:44:25;100047.25;;;21.59;53.83
38022;BME280;23832;43.216;27.946;2023-02-26T08:46:27;100055.31;;;21.59;53.74
38022;BME280;23832;43.216;27.946;2023-02-26T08:48:30;100037.66;;;21.68;53.10
38022;BME280;23832;43.216;27.946;2023-02-26T08:50:32;100049.13;;;21.59;53.06
38022;BME280;23832;43.216;27.946;2023-02-26T08:52:36;100037.94;;;21.72;52.43
38022;BME280;23832;43.216;27.946;2023-02-26T08:54:39;100046.47;;;21.64;52.77
38022;BME280;23832;43.216;27.946;2023-02-26T08:56:41;100048.63;;;21.62;52.70
38022;BME280;23832;43.216;27.946;2023-02-26T08:58:43;100026.63;;;21.60;52.48
38022;BME280;23832;43.216;27.946;2023-02-26T09:00:46;100040.66;;;21.77;52.27
38022;BME280;23832;43.216;27.946;2023-02-26T09:02:48;100025.13;;;21.84;51.91
38022;BME280;23832;43.216;27.946;2023-02-26T09:04:50;100048.16;;;21.75;52.42
38022;BME280;23832;43.216;27.946;2023-02-26T09:06:52;100049.78;;;21.81;52.09
38022;BME280;23832;43.216;27.946;2023-02-26T09:08:55;100052.00;;;21.99;51.19
38022;BME280;23832;43.216;27.946;2023-02-26T09:10:58;100049.97;;;22.17;51.15
38022;BME280;23832;43.216;27.946;2023-02-26T09:13:01;100046.22;;;22.28;51.19
38022;BME280;23832;43.216;27.946;2023-02-26T09:15:04;100048.38;;;22.26;51.60
38022;BME280;23832;43.216;27.946;2023-02-26T09:17:06;100064.50;;;22.26;51.73
38022;BME280;23832;43.216;27.946;2023-02-26T09:19:08;100043.56;;;22.33;51.92
38022;BME280;23832;43.216;27.946;2023-02-26T09:21:10;100048.47;;;22.61;51.77
38022;BME280;23832;43.216;27.946;2023-02-26T09:23:12;100051.41;;;22.60;52.91
38022;BME280;23832;43.216;27.946;2023-02-26T09:25:15;100047.94;;;22.70;53.04
38022;BME280;23832;43.216;27.946;2023-02-26T09:27:17;100054.16;;;22.90;52.31
38022;BME280;23832;43.216;27.946;2023-02-26T09:29:19;100054.69;;;23.08;51.42
38022;BME280;23832;43.216;27.946;2023-02-26T09:31:21;100048.25;;;22.83;52.51
38022;BME280;23832;43.216;27.946;2023-02-26T09:33:23;100061.44;;;22.95;51.60
38022;BME280;23832;43.216;27.946;2023-02-26T09:35:25;100053.66;;;22.93;51.83
38022;BME280;23832;43.216;27.946;2023-02-26T09:37:27;100050.97;;;23.19;50.61
38022;BME280;23832;43.216;27.946;2023-02-26T09:39:29;100043.69;;;23.04;51.36
38022;BME280;23832;43.216;27.946;2023-02-26T09:41:35;100050.97;;;22.93;50.65
38022;BME280;23832;43.216;27.946;2023-02-26T09:44:00;100062.25;;;22.85;51.56
38022;BME280;23832;43.216;27.946;2023-02-26T09:46:09;100063.59;;;23.03;51.11
38022;BME280;23832;43.216;27.946;2023-02-26T09:48:14;100055.53;;;23.13;51.17
38022;BME280;23832;43.216;27.946;2023-02-26T09:50:23;100077.84;;;22.93;51.74
38022;BME280;23832;43.216;27.946;2023-02-26T09:52:29;100059.28;;;23.22;51.15
38022;BME280;23832;43.216;27.946;2023-02-26T09:54:38;100066.53;;;23.32;50.85
38022;BME280;23832;43.216;27.946;2023-02-26T09:56:45;100080.22;;;23.41;50.49
38022;BME280;23832;43.216;27.946;2023-02-26T09:58:49;100058.97;;;23.44;50.02
38022;BME280;23832;43.216;27.946;2023-02-26T10:01:00;100066.53;;;23.32;50.04
38022;BME280;23832;43.216;27.946;2023-02-26T10:03:15;100094.78;;;23.30;49.88
38022;BME280;23832;43.216;27.946;2023-02-26T10:05:25;100058.13;;;23.54;49.61
38022;BME280;23832;43.216;27.946;2023-02-26T10:07:37;100067.28;;;23.53;49.30
38022;BME280;23832;43.216;27.946;2023-02-26T10:09:59;100062.50;;;23.30;48.95
38022;BME280;23832;43.216;27.946;2023-02-26T10:12:07;100059.00;;;23.29;48.87
38022;BME280;23832;43.216;27.946;2023-02-26T10:14:15;100053.63;;;23.14;49.35
38022;BME280;23832;43.216;27.946;2023-02-26T10:16:20;100067.59;;;23.31;48.87
38022;BME280;23832;43.216;27.946;2023-02-26T10:18:25;100056.56;;;23.17;48.87
38022;BME280;23832;43.216;27.946;2023-02-26T10:20:34;100046.94;;;23.01;48.60
38022;BME280;23832;43.216;27.946;2023-02-26T10:22:42;100083.50;;;23.02;48.72
38022;BME280;23832;43.216;27.946;2023-02-26T10:24:48;100047.94;;;22.70;48.68
38022;BME280;23832;43.216;27.946;2023-02-26T10:26:54;100079.72;;;22.93;48.74
38022;BME280;23832;43.216;27.946;2023-02-26T10:29:10;100061.19;;;23.02;48.43
38022;BME280;23832;43.216;27.946;2023-02-26T10:31:22;100067.00;;;22.58;49.39
38022;BME280;23832;43.216;27.946;2023-02-26T10:33:32;100058.59;;;22.34;49.72
38022;BME280;23832;43.216;27.946;2023-02-26T10:35:41;100076.63;;;22.38;50.01
38022;BME280;23832;43.216;27.946;2023-02-26T10:37:49;100064.50;;;22.26;50.43
38022;BME280;23832;43.216;27.946;2023-02-26T10:39:57;100039.25;;;22.22;50.00
38022;BME280;23832;43.216;27.946;2023-02-26T10:42:04;100061.53;;;22.27;50.06
38022;BME280;23832;43.216;27.946;2023-02-26T10:44:17;100083.81;;;22.28;50.24
38022;BME280;23832;43.216;27.946;2023-02-26T10:46:32;100058.00;;;22.12;50.19
38022;BME280;23832;43.216;27.946;2023-02-26T10:48:51;100060.72;;;22.27;49.81